createdAt,value
2019-01-14T00:00:24.322Z,53.1
2019-01-14T00:05:29.765Z,52.9
2019-01-14T00:10:35.058Z,53.1
2019-01-14T00:15:40.275Z,53.4
2019-01-14T00:20:44.776Z,53.7
2019-01-14T00:25:50.358Z,53.8
2019-01-14T00:30:54.649Z,53.7
2019-01-14T00:36:02.974Z,53.7
2019-01-14T00:41:08.312Z,53.6
2019-01-14T00:46:13.680Z,53.6
2019-01-14T00:51:22.477Z,53.6
2019-01-14T00:56:28.273Z,53.6
2019-01-14T01:01:33.752Z,53.7
2019-01-14T01:06:39.435Z,54
2019-01-14T01:11:45.057Z,53.8
2019-01-14T01:16:50.666Z,53.9
2019-01-14T01:21:56.569Z,53.8
2019-01-14T01:27:02.222Z,53.8
2019-01-14T01:32:08.070Z,53.9
2019-01-14T01:37:13.276Z,53.8
2019-01-14T01:42:17.580Z,53.7
2019-01-14T01:47:23.263Z,53.9
2019-01-14T01:52:30.727Z,53.5
2019-01-14T01:57:36.332Z,53.4
2019-01-14T02:02:42.762Z,53.5
2019-01-14T02:07:48.617Z,53.3
2019-01-14T02:12:52.787Z,53.5
2019-01-14T02:23:05.196Z,53.5
2019-01-14T02:28:13.682Z,53.3
2019-01-14T02:33:19.924Z,53.5
2019-01-14T02:38:25.278Z,53.2
2019-01-14T02:43:31.181Z,53.2
2019-01-14T02:48:36.410Z,53.3
2019-01-14T02:53:42.452Z,53.5
2019-01-14T02:58:48.025Z,53.5
2019-01-14T03:03:53.480Z,53.6
2019-01-14T03:14:03.181Z,53.5
2019-01-14T03:19:08.347Z,53.5
2019-01-14T03:24:14.006Z,53.7
2019-01-14T03:29:19.496Z,53.9
2019-01-14T03:34:25.635Z,53.8
2019-01-14T03:39:31.003Z,53.8
2019-01-14T03:44:36.603Z,53.5
2019-01-14T03:49:41.726Z,53.5
2019-01-14T03:54:47.850Z,53.6
2019-01-14T03:59:53.710Z,53.1
2019-01-14T04:04:59.395Z,53.1
2019-01-14T04:10:04.703Z,53
2019-01-14T04:15:10.532Z,52.7
2019-01-14T04:20:15.965Z,52.4
2019-01-14T04:25:21.277Z,52.2
2019-01-14T04:30:26.594Z,52
2019-01-14T04:35:31.990Z,52
2019-01-14T04:40:37.194Z,51.9
2019-01-14T04:45:43.036Z,51.9
2019-01-14T04:50:48.215Z,51.8
2019-01-14T04:55:54.026Z,51.7
2019-01-14T05:00:59.573Z,52
2019-01-14T05:06:05.372Z,52.2
2019-01-14T05:11:10.801Z,52.2
2019-01-14T05:16:16.270Z,52.2
2019-01-14T05:21:22.091Z,52.2
2019-01-14T05:26:26.435Z,52.4
2019-01-14T05:31:31.429Z,52.4
2019-01-14T05:36:37.113Z,52.2
2019-01-14T05:41:42.914Z,52.1
2019-01-14T05:46:52.416Z,52
2019-01-14T05:51:57.950Z,52
2019-01-14T05:57:03.579Z,51.7
2019-01-14T06:02:08.956Z,51.7
2019-01-14T06:07:14.576Z,51.7
2019-01-14T06:12:19.851Z,51.6
2019-01-14T06:17:25.333Z,51.6
2019-01-14T06:22:30.852Z,51.5
2019-01-14T06:27:36.298Z,51.4
2019-01-14T06:32:41.794Z,51.4
2019-01-14T06:37:54.085Z,51.3
2019-01-14T06:42:49.663Z,51.3
2019-01-14T06:47:53.457Z,51.3
2019-01-14T06:52:59.152Z,51.1
2019-01-14T06:58:04.645Z,51.1
2019-01-14T07:03:09.533Z,51.4
2019-01-14T07:08:14.754Z,51.6
2019-01-14T07:13:19.751Z,51.8
2019-01-14T07:18:25.213Z,51.9
2019-01-14T07:23:30.812Z,52.2
2019-01-14T07:28:36.119Z,52.5
2019-01-14T07:33:41.292Z,52.2
2019-01-14T07:38:46.603Z,52.3
2019-01-14T07:43:51.596Z,52.9
2019-01-14T07:48:57.307Z,53.3
2019-01-14T07:54:02.289Z,52.7
2019-01-14T07:59:07.407Z,53
2019-01-14T08:04:12.580Z,53.2
2019-01-14T08:09:18.264Z,53
2019-01-14T08:14:23.475Z,53
2019-01-14T08:19:29.057Z,52.8
2019-01-14T08:24:34.085Z,52.6
2019-01-14T08:29:39.400Z,52.7
2019-01-14T08:34:44.916Z,52.7
2019-01-14T08:39:50.578Z,52.6
2019-01-14T08:44:55.791Z,52.5
2019-01-14T08:50:01.089Z,52.5
2019-01-14T08:55:06.052Z,52.4
2019-01-14T09:00:11.324Z,52.4
2019-01-14T09:05:16.803Z,52.6
2019-01-14T09:10:22.136Z,52.7
2019-01-14T09:15:25.883Z,52.5
2019-01-14T09:20:30.909Z,53
2019-01-14T09:25:36.058Z,54
2019-01-14T09:30:41.559Z,54.3
2019-01-14T09:35:47.254Z,54.6
2019-01-14T09:40:52.590Z,55.2
2019-01-14T09:45:58.590Z,55.3
2019-01-14T09:51:04.152Z,55.3
2019-01-14T09:56:09.316Z,55.4
2019-01-14T10:01:14.989Z,55.6
2019-01-14T10:06:20.512Z,55.8
2019-01-14T10:11:26.340Z,57.8
2019-01-14T10:16:32.236Z,57.7
2019-01-14T10:21:37.659Z,56.3
2019-01-14T10:26:43.037Z,55.6
2019-01-14T10:31:48.182Z,54.8
2019-01-14T10:36:54.055Z,54
2019-01-14T10:41:59.372Z,53.8
2019-01-14T10:47:04.928Z,53.7
2019-01-14T10:52:10.333Z,53.8
2019-01-14T10:57:15.938Z,54.4
2019-01-14T11:02:21.631Z,53.1
2019-01-14T11:07:25.395Z,42.5
2019-01-14T11:12:30.460Z,47.3
2019-01-14T11:17:36.338Z,47.6
2019-01-14T11:22:41.848Z,48
2019-01-14T11:27:47.250Z,48.2
2019-01-14T11:32:52.681Z,48.5
2019-01-14T11:37:58.543Z,48.6
2019-01-14T11:43:03.778Z,48.8
2019-01-14T11:48:08.956Z,49
2019-01-14T11:58:19.667Z,49.8
2019-01-14T12:03:25.667Z,49.6
2019-01-14T12:08:30.924Z,49.6
2019-01-14T12:13:36.720Z,49.8
2019-01-14T12:18:41.835Z,49.9
2019-01-14T12:23:47.043Z,49.9
2019-01-14T12:28:51.104Z,50
2019-01-14T12:33:56.312Z,50.1
2019-01-14T12:44:05.026Z,50.3
2019-01-14T12:49:10.112Z,50.3
2019-01-14T12:54:15.377Z,50.1
2019-01-14T12:59:20.361Z,50.3
2019-01-14T13:04:25.544Z,50.2
2019-01-14T13:09:31.689Z,50.2
2019-01-14T13:14:37.328Z,50.1
2019-01-14T13:19:41.779Z,50.2
2019-01-14T13:24:47.934Z,50.1
2019-01-14T13:29:52.947Z,50
2019-01-14T13:34:59.022Z,50.7
2019-01-14T13:40:04.000Z,50.4
2019-01-14T13:45:09.828Z,50.8
2019-01-14T13:50:15.515Z,50.9
2019-01-14T13:55:19.938Z,50.9
2019-01-14T14:00:23.747Z,50.8
2019-01-14T14:05:27.860Z,50.3
2019-01-14T14:10:33.429Z,50.3
2019-01-14T14:15:38.619Z,49
2019-01-14T14:20:44.254Z,48.6
2019-01-14T14:25:49.586Z,49.2
2019-01-14T14:30:54.989Z,49
2019-01-14T14:36:00.276Z,49.2
2019-01-14T14:41:05.584Z,49.2
2019-01-14T14:46:11.433Z,46.9
2019-01-14T14:51:17.719Z,38.6
2019-01-14T14:56:27.353Z,38.5
2019-01-14T15:01:31.464Z,39.6
2019-01-14T15:06:36.637Z,41.2
2019-01-14T15:11:41.644Z,42.9
2019-01-14T15:16:47.444Z,43.8
2019-01-14T15:21:52.632Z,44.8
2019-01-14T15:26:57.744Z,45.4
2019-01-14T15:32:02.739Z,46
2019-01-14T15:37:08.564Z,46.3
2019-01-14T15:42:14.354Z,46.8
2019-01-14T15:47:20.037Z,47.1
2019-01-14T15:52:25.414Z,47.7
2019-01-14T15:57:31.513Z,47.8
2019-01-14T16:02:38.449Z,47.9
2019-01-14T16:07:44.424Z,47.9
2019-01-14T16:12:49.786Z,47.5
2019-01-14T16:17:55.928Z,45.8
2019-01-14T16:23:02.036Z,45.9
2019-01-14T16:28:07.392Z,46.9
2019-01-14T16:33:12.450Z,46.4
2019-01-14T16:38:18.415Z,46.7
2019-01-14T16:43:24.285Z,46.9
2019-01-14T16:48:30.072Z,47
2019-01-14T16:53:35.885Z,47.1
2019-01-14T16:58:41.233Z,47.4
2019-01-14T17:03:46.917Z,47.7
2019-01-14T17:08:52.428Z,47.6
2019-01-14T17:13:58.110Z,47.9
2019-01-14T17:19:04.222Z,48
2019-01-14T17:24:09.442Z,48.7
2019-01-14T17:29:15.628Z,49.4
2019-01-14T17:34:21.080Z,46.5
2019-01-14T17:39:26.528Z,47.8
2019-01-14T17:44:32.118Z,47.9
2019-01-14T17:49:38.408Z,48.9
2019-01-14T17:54:43.756Z,49
2019-01-14T17:59:49.752Z,49
2019-01-14T18:04:55.274Z,49.1
2019-01-14T18:10:01.601Z,49.9
2019-01-14T18:15:07.678Z,49.5
2019-01-14T18:20:13.330Z,49.5
2019-01-14T18:25:18.726Z,23.7
2019-01-14T18:30:23.793Z,33.8
2019-01-14T18:35:29.715Z,35.5
2019-01-14T18:40:37.123Z,38.2
2019-01-14T18:45:42.112Z,38.2
2019-01-14T18:50:47.332Z,38.8
2019-01-14T18:55:53.022Z,39.7
2019-01-14T19:00:58.731Z,44.7
2019-01-14T19:06:03.664Z,43.9
2019-01-14T19:11:09.102Z,43.3
2019-01-14T19:16:14.706Z,44.2
2019-01-14T19:21:19.835Z,44.2
2019-01-14T19:26:25.190Z,44.3
2019-01-14T19:31:31.166Z,44.4
2019-01-14T19:36:36.689Z,44.8
2019-01-14T19:41:42.185Z,45
2019-01-14T19:51:52.077Z,46.5
2019-01-14T19:56:57.385Z,46
2019-01-14T20:02:03.584Z,45.9
2019-01-14T20:07:14.628Z,46.6
2019-01-14T20:12:09.695Z,46.6
2019-01-14T20:22:19.983Z,47.2
2019-01-14T20:27:25.369Z,47.4
2019-01-14T20:32:31.190Z,47.3
2019-01-14T20:37:36.778Z,47.7
2019-01-14T20:42:42.925Z,47.9
2019-01-14T20:47:48.827Z,47.9
2019-01-14T20:52:54.487Z,47.9
2019-01-14T20:58:00.133Z,48.1
2019-01-14T21:03:05.969Z,48.1
2019-01-14T21:08:12.001Z,48.2
2019-01-14T21:13:17.417Z,48.1
2019-01-14T21:18:22.686Z,49.2
2019-01-14T21:23:28.619Z,49.1
2019-01-14T21:28:34.749Z,49.7
2019-01-14T21:33:40.094Z,49.7
2019-01-14T21:38:45.221Z,49.4
2019-01-14T21:43:50.839Z,49.2
2019-01-14T21:49:00.039Z,49.5
2019-01-14T21:54:05.122Z,50.1
2019-01-14T21:59:10.642Z,45.6
2019-01-14T22:04:17.228Z,49
2019-01-14T22:09:22.900Z,48.3
2019-01-14T22:14:29.038Z,49.1
2019-01-14T22:19:34.399Z,49.5
2019-01-14T22:24:39.688Z,49.6
2019-01-14T22:29:44.833Z,49.7
2019-01-14T22:34:51.268Z,50
2019-01-14T22:39:56.502Z,50
2019-01-14T22:45:02.340Z,50.2
2019-01-14T22:50:07.536Z,50
2019-01-14T22:55:13.384Z,50.3
2019-01-14T23:00:18.986Z,50.3
2019-01-14T23:05:24.537Z,50.2
2019-01-14T23:10:30.223Z,50.3
2019-01-14T23:15:35.367Z,50.3
2019-01-14T23:20:41.084Z,50
2019-01-14T23:25:46.708Z,49.9
2019-01-14T23:30:52.208Z,50
2019-01-14T23:41:01.889Z,49.9
2019-01-14T23:46:07.359Z,49.7
2019-01-14T23:51:12.440Z,49.6
2019-01-14T23:56:17.663Z,49.5
